sensor_id;sensor_type;location;lat;lon;timestamp;P1;P2;P0
40569;PMS5003;26270;34.428;-119.710;2023-01-04T00:00:58;0;0;
40569;PMS5003;26270;34.428;-119.710;2023-01-04T00:03:26;0;0;
40569;PMS5003;26270;34.428;-119.710;2023-01-04T00:05:55;1;1;
40569;PMS5003;26270;34.428;-119.710;2023-01-04T00:08:25;2;2;
40569;PMS5003;26270;34.428;-119.710;2023-01-04T00:10:58;2;2;
40569;PMS5003;26270;34.428;-119.710;2023-01-04T00:13:26;2;1;
40569;PMS5003;26270;34.428;-119.710;2023-01-04T00:15:55;2;1;
40569;PMS5003;26270;34.428;-119.710;2023-01-04T00:18:23;2;1;
40569;PMS5003;26270;34.428;-119.710;2023-01-04T00:20:51;2;1;
40569;PMS5003;26270;34.428;-119.710;2023-01-04T00:23:20;1;1;
40569;PMS5003;26270;34.428;-119.710;2023-01-04T00:25:48;1;1;
40569;PMS5003;26270;34.428;-119.710;2023-01-04T00:28:16;2;2;
40569;PMS5003;26270;34.428;-119.710;2023-01-04T00:30:45;1;1;
40569;PMS5003;26270;34.428;-119.710;2023-01-04T00:33:13;1;1;
40569;PMS5003;26270;34.428;-119.710;2023-01-04T00:35:41;1;1;
40569;PMS5003;26270;34.428;-119.710;2023-01-04T00:38:09;0;0;
40569;PMS5003;26270;34.428;-119.710;2023-01-04T00:40:38;1;1;
40569;PMS5003;26270;34.428;-119.710;2023-01-04T00:43:06;0;0;
40569;PMS5003;26270;34.428;-119.710;2023-01-04T00:45:34;0;0;
40569;PMS5003;26270;34.428;-119.710;2023-01-04T00:48:03;2;2;
40569;PMS5003;26270;34.428;-119.710;2023-01-04T00:50:31;4;4;
40569;PMS5003;26270;34.428;-119.710;2023-01-04T00:50:33;4;4;
40569;PMS5003;26270;34.428;-119.710;2023-01-04T00:53:01;7;7;
40569;PMS5003;26270;34.428;-119.710;2023-01-04T00:55:29;2;2;
40569;PMS5003;26270;34.428;-119.710;2023-01-04T00:57:58;3;2;
40569;PMS5003;26270;34.428;-119.710;2023-01-04T01:00:26;3;3;
40569;PMS5003;26270;34.428;-119.710;2023-01-04T01:02:54;1;1;
40569;PMS5003;26270;34.428;-119.710;2023-01-04T01:05:23;0;0;
40569;PMS5003;26270;34.428;-119.710;2023-01-04T01:07:51;2;2;
40569;PMS5003;26270;34.428;-119.710;2023-01-04T01:10:20;1;1;
40569;PMS5003;26270;34.428;-119.710;2023-01-04T01:12:48;0;0;
40569;PMS5003;26270;34.428;-119.710;2023-01-04T01:15:16;2;1;
40569;PMS5003;26270;34.428;-119.710;2023-01-04T01:17:44;1;1;
40569;PMS5003;26270;34.428;-119.710;2023-01-04T01:20:13;0;0;
40569;PMS5003;26270;34.428;-119.710;2023-01-04T01:22:41;1;1;
40569;PMS5003;26270;34.428;-119.710;2023-01-04T01:25:09;0;0;
40569;PMS5003;26270;34.428;-119.710;2023-01-04T01:27:38;3;3;
40569;PMS5003;26270;34.428;-119.710;2023-01-04T01:30:06;2;2;
40569;PMS5003;26270;34.428;-119.710;2023-01-04T01:32:35;2;2;
40569;PMS5003;26270;34.428;-119.710;2023-01-04T01:35:04;1;1;
40569;PMS5003;26270;34.428;-119.710;2023-01-04T01:37:33;2;2;
40569;PMS5003;26270;34.428;-119.710;2023-01-04T01:40:01;3;2;
40569;PMS5003;26270;34.428;-119.710;2023-01-04T01:42:29;2;2;
40569;PMS5003;26270;34.428;-119.710;2023-01-04T01:44:58;2;2;
40569;PMS5003;26270;34.428;-119.710;2023-01-04T01:47:31;2;2;
40569;PMS5003;26270;34.428;-119.710;2023-01-04T01:50:04;4;4;
40569;PMS5003;26270;34.428;-119.710;2023-01-04T01:52:41;2;2;
40569;PMS5003;26270;34.428;-119.710;2023-01-04T01:55:09;2;2;
40569;PMS5003;26270;34.428;-119.710;2023-01-04T01:57:38;4;4;
40569;PMS5003;26270;34.428;-119.710;2023-01-04T02:00:08;3;3;
40569;PMS5003;26270;34.428;-119.710;2023-01-04T02:02:41;5;3;
40569;PMS5003;26270;34.428;-119.710;2023-01-04T02:05:13;4;4;
40569;PMS5003;26270;34.428;-119.710;2023-01-04T02:07:43;5;5;
40569;PMS5003;26270;34.428;-119.710;2023-01-04T02:10:11;4;4;
40569;PMS5003;26270;34.428;-119.710;2023-01-04T02:12:40;5;5;
40569;PMS5003;26270;34.428;-119.710;2023-01-04T02:15:11;4;4;
40569;PMS5003;26270;34.428;-119.710;2023-01-04T02:17:41;6;5;
40569;PMS5003;26270;34.428;-119.710;2023-01-04T02:20:21;6;5;
40569;PMS5003;26270;34.428;-119.710;2023-01-04T02:23:09;7;6;
40569;PMS5003;26270;34.428;-119.710;2023-01-04T02:26:00;5;4;
40569;PMS5003;26270;34.428;-119.710;2023-01-04T02:28:50;6;5;
40569;PMS5003;26270;34.428;-119.710;2023-01-04T02:31:33;12;11;
40569;PMS5003;26270;34.428;-119.710;2023-01-04T02:34:08;13;13;
40569;PMS5003;26270;34.428;-119.710;2023-01-04T02:36:48;11;10;
40569;PMS5003;26270;34.428;-119.710;2023-01-04T02:39:26;9;8;
40569;PMS5003;26270;34.428;-119.710;2023-01-04T02:42:03;12;11;
40569;PMS5003;26270;34.428;-119.710;2023-01-04T02:44:40;10;10;
40569;PMS5003;26270;34.428;-119.710;2023-01-04T02:47:14;15;14;
40569;PMS5003;26270;34.428;-119.710;2023-01-04T02:49:47;14;14;
40569;PMS5003;26270;34.428;-119.710;2023-01-04T02:52:15;14;14;
40569;PMS5003;26270;34.428;-119.710;2023-01-04T02:54:43;16;15;
40569;PMS5003;26270;34.428;-119.710;2023-01-04T02:57:19;14;14;
40569;PMS5003;26270;34.428;-119.710;2023-01-04T03:00:02;14;14;
40569;PMS5003;26270;34.428;-119.710;2023-01-04T03:02:47;19;17;
40569;PMS5003;26270;34.428;-119.710;2023-01-04T03:05:31;18;17;
40569;PMS5003;26270;34.428;-119.710;2023-01-04T03:08:10;17;16;
40569;PMS5003;26270;34.428;-119.710;2023-01-04T03:10:52;14;14;
40569;PMS5003;26270;34.428;-119.710;2023-01-04T03:13:25;16;15;
40569;PMS5003;26270;34.428;-119.710;2023-01-04T03:15:58;20;19;
40569;PMS5003;26270;34.428;-119.710;2023-01-04T03:18:33;18;16;
40569;PMS5003;26270;34.428;-119.710;2023-01-04T03:21:05;18;17;
40569;PMS5003;26270;34.428;-119.710;2023-01-04T03:23:37;16;16;
40569;PMS5003;26270;34.428;-119.710;2023-01-04T03:26:08;16;14;
40569;PMS5003;26270;34.428;-119.710;2023-01-04T03:28:39;17;15;
40569;PMS5003;26270;34.428;-119.710;2023-01-04T03:31:10;17;16;
40569;PMS5003;26270;34.428;-119.710;2023-01-04T03:33:44;13;13;
40569;PMS5003;26270;34.428;-119.710;2023-01-04T03:36:17;19;18;
40569;PMS5003;26270;34.428;-119.710;2023-01-04T03:38:54;33;30;
40569;PMS5003;26270;34.428;-119.710;2023-01-04T03:41:29;45;44;
40569;PMS5003;26270;34.428;-119.710;2023-01-04T03:44:05;36;36;
40569;PMS5003;26270;34.428;-119.710;2023-01-04T03:46:42;36;35;
40569;PMS5003;26270;34.428;-119.710;2023-01-04T03:49:16;25;25;
40569;PMS5003;26270;34.428;-119.710;2023-01-04T03:51:50;29;25;
40569;PMS5003;26270;34.428;-119.710;2023-01-04T03:54:22;20;20;
40569;PMS5003;26270;34.428;-119.710;2023-01-04T03:56:54;19;19;
40569;PMS5003;26270;34.428;-119.710;2023-01-04T03:59:24;16;15;
40569;PMS5003;26270;34.428;-119.710;2023-01-04T04:01:52;17;16;
40569;PMS5003;26270;34.428;-119.710;2023-01-04T04:04:21;17;17;
40569;PMS5003;26270;34.428;-119.710;2023-01-04T04:06:49;19;16;
40569;PMS5003;26270;34.428;-119.710;2023-01-04T04:09:17;19;19;
40569;PMS5003;26270;34.428;-119.710;2023-01-04T04:11:46;20;20;
40569;PMS5003;26270;34.428;-119.710;2023-01-04T04:14:14;20;20;
40569;PMS5003;26270;34.428;-119.710;2023-01-04T04:16:42;18;17;
40569;PMS5003;26270;34.428;-119.710;2023-01-04T04:19:11;23;18;
40569;PMS5003;26270;34.428;-119.710;2023-01-04T04:21:39;19;18;
40569;PMS5003;26270;34.428;-119.710;2023-01-04T04:24:09;18;16;
40569;PMS5003;26270;34.428;-119.710;2023-01-04T04:26:43;14;14;
40569;PMS5003;26270;34.428;-119.710;2023-01-04T04:29:11;17;17;
40569;PMS5003;26270;34.428;-119.710;2023-01-04T04:31:39;27;26;
40569;PMS5003;26270;34.428;-119.710;2023-01-04T04:34:08;21;20;
40569;PMS5003;26270;34.428;-119.710;2023-01-04T04:36:36;16;14;
40569;PMS5003;26270;34.428;-119.710;2023-01-04T04:39:04;8;8;
40569;PMS5003;26270;34.428;-119.710;2023-01-04T04:41:33;6;6;
40569;PMS5003;26270;34.428;-119.710;2023-01-04T04:44:01;2;2;
40569;PMS5003;26270;34.428;-119.710;2023-01-04T04:46:29;4;3;
40569;PMS5003;26270;34.428;-119.710;2023-01-04T04:48:58;4;4;
40569;PMS5003;26270;34.428;-119.710;2023-01-04T04:51:26;3;2;
40569;PMS5003;26270;34.428;-119.710;2023-01-04T04:53:55;2;2;
40569;PMS5003;26270;34.428;-119.710;2023-01-04T04:56:23;1;1;
40569;PMS5003;26270;34.428;-119.710;2023-01-04T04:58:51;3;2;
40569;PMS5003;26270;34.428;-119.710;2023-01-04T05:03:18;2;2;
40569;PMS5003;26270;34.428;-119.710;2023-01-04T05:05:47;3;3;
40569;PMS5003;26270;34.428;-119.710;2023-01-04T05:08:15;3;3;
40569;PMS5003;26270;34.428;-119.710;2023-01-04T05:10:44;4;3;
40569;PMS5003;26270;34.428;-119.710;2023-01-04T05:13:12;4;4;
40569;PMS5003;26270;34.428;-119.710;2023-01-04T05:15:41;3;2;
40569;PMS5003;26270;34.428;-119.710;2023-01-04T05:18:11;6;3;
40569;PMS5003;26270;34.428;-119.710;2023-01-04T05:20:42;6;5;
40569;PMS5003;26270;34.428;-119.710;2023-01-04T05:23:10;4;3;
40569;PMS5003;26270;34.428;-119.710;2023-01-04T05:25:40;4;4;
40569;PMS5003;26270;34.428;-119.710;2023-01-04T05:28:08;4;4;
40569;PMS5003;26270;34.428;-119.710;2023-01-04T05:30:37;5;4;
40569;PMS5003;26270;34.428;-119.710;2023-01-04T05:33:05;4;4;
40569;PMS5003;26270;34.428;-119.710;2023-01-04T05:35:33;3;3;
40569;PMS5003;26270;34.428;-119.710;2023-01-04T05:38:02;4;3;
40569;PMS5003;26270;34.428;-119.710;2023-01-04T05:40:31;3;3;
40569;PMS5003;26270;34.428;-119.710;2023-01-04T05:42:59;6;5;
40569;PMS5003;26270;34.428;-119.710;2023-01-04T05:45:28;4;4;
40569;PMS5003;26270;34.428;-119.710;2023-01-04T05:47:56;4;4;
40569;PMS5003;26270;34.428;-119.710;2023-01-04T05:50:24;5;5;
40569;PMS5003;26270;34.428;-119.710;2023-01-04T05:52:53;5;5;
40569;PMS5003;26270;34.428;-119.710;2023-01-04T05:55:21;5;5;
40569;PMS5003;26270;34.428;-119.710;2023-01-04T05:57:50;4;4;
40569;PMS5003;26270;34.428;-119.710;2023-01-04T06:00:19;4;4;
40569;PMS5003;26270;34.428;-119.710;2023-01-04T06:02:47;4;4;
40569;PMS5003;26270;34.428;-119.710;2023-01-04T06:05:15;4;3;
40569;PMS5003;26270;34.428;-119.710;2023-01-04T06:07:44;3;3;
40569;PMS5003;26270;34.428;-119.710;2023-01-04T06:10:12;3;3;
40569;PMS5003;26270;34.428;-119.710;2023-01-04T06:12:41;3;3;
40569;PMS5003;26270;34.428;-119.710;2023-01-04T06:15:10;1;1;
40569;PMS5003;26270;34.428;-119.710;2023-01-04T06:17:38;2;2;
40569;PMS5003;26270;34.428;-119.710;2023-01-04T06:20:07;1;0;
40569;PMS5003;26270;34.428;-119.710;2023-01-04T06:22:37;0;0;
40569;PMS5003;26270;34.428;-119.710;2023-01-04T06:25:05;2;1;
40569;PMS5003;26270;34.428;-119.710;2023-01-04T06:27:34;0;0;
40569;PMS5003;26270;34.428;-119.710;2023-01-04T06:30:03;0;0;
40569;PMS5003;26270;34.428;-119.710;2023-01-04T06:32:32;0;0;
40569;PMS5003;26270;34.428;-119.710;2023-01-04T06:35:00;0;0;
40569;PMS5003;26270;34.428;-119.710;2023-01-04T06:37:28;0;0;
40569;PMS5003;26270;34.428;-119.710;2023-01-04T06:39:57;0;0;
40569;PMS5003;26270;34.428;-119.710;2023-01-04T06:42:25;0;0;
40569;PMS5003;26270;34.428;-119.710;2023-01-04T06:44:53;0;0;
40569;PMS5003;26270;34.428;-119.710;2023-01-04T06:47:22;0;0;
40569;PMS5003;26270;34.428;-119.710;2023-01-04T06:49:50;1;1;
40569;PMS5003;26270;34.428;-119.710;2023-01-04T06:52:18;0;0;
40569;PMS5003;26270;34.428;-119.710;2023-01-04T06:54:47;2;2;
40569;PMS5003;26270;34.428;-119.710;2023-01-04T06:57:15;2;2;
40569;PMS5003;26270;34.428;-119.710;2023-01-04T06:59:43;1;1;
40569;PMS5003;26270;34.428;-119.710;2023-01-04T07:02:13;1;1;
40569;PMS5003;26270;34.428;-119.710;2023-01-04T07:04:42;1;1;
40569;PMS5003;26270;34.428;-119.710;2023-01-04T07:07:10;1;1;
40569;PMS5003;26270;34.428;-119.710;2023-01-04T07:09:38;1;1;
40569;PMS5003;26270;34.428;-119.710;2023-01-04T07:12:07;0;0;
40569;PMS5003;26270;34.428;-119.710;2023-01-04T07:14:35;1;1;
40569;PMS5003;26270;34.428;-119.710;2023-01-04T07:17:04;3;1;
40569;PMS5003;26270;34.428;-119.710;2023-01-04T07:19:32;1;0;
40569;PMS5003;26270;34.428;-119.710;2023-01-04T07:22:00;0;0;
40569;PMS5003;26270;34.428;-119.710;2023-01-04T07:24:28;1;0;
40569;PMS5003;26270;34.428;-119.710;2023-01-04T07:26:58;0;0;
40569;PMS5003;26270;34.428;-119.710;2023-01-04T07:29:26;1;0;
40569;PMS5003;26270;34.428;-119.710;2023-01-04T07:31:55;0;0;
40569;PMS5003;26270;34.428;-119.710;2023-01-04T07:34:24;0;0;
40569;PMS5003;26270;34.428;-119.710;2023-01-04T07:36:53;1;1;
40569;PMS5003;26270;34.428;-119.710;2023-01-04T07:39:22;0;0;
40569;PMS5003;26270;34.428;-119.710;2023-01-04T07:41:50;0;0;
40569;PMS5003;26270;34.428;-119.710;2023-01-04T07:44:19;0;0;
40569;PMS5003;26270;34.428;-119.710;2023-01-04T07:46:47;0;0;
40569;PMS5003;26270;34.428;-119.710;2023-01-04T07:49:15;0;0;
40569;PMS5003;26270;34.428;-119.710;2023-01-04T07:51:44;0;0;
40569;PMS5003;26270;34.428;-119.710;2023-01-04T07:54:14;0;0;
40569;PMS5003;26270;34.428;-119.710;2023-01-04T07:56:43;0;0;
40569;PMS5003;26270;34.428;-119.710;2023-01-04T07:59:13;1;0;
40569;PMS5003;26270;34.428;-119.710;2023-01-04T08:01:42;0;0;
40569;PMS5003;26270;34.428;-119.710;2023-01-04T08:04:11;0;0;
40569;PMS5003;26270;34.428;-119.710;2023-01-04T08:06:41;1;1;
40569;PMS5003;26270;34.428;-119.710;2023-01-04T08:09:10;0;0;
40569;PMS5003;26270;34.428;-119.710;2023-01-04T08:11:38;0;0;
40569;PMS5003;26270;34.428;-119.710;2023-01-04T08:14:06;0;0;
40569;PMS5003;26270;34.428;-119.710;2023-01-04T08:16:35;0;0;
40569;PMS5003;26270;34.428;-119.710;2023-01-04T08:19:06;1;1;
40569;PMS5003;26270;34.428;-119.710;2023-01-04T08:21:38;0;0;
40569;PMS5003;26270;34.428;-119.710;2023-01-04T08:24:08;1;0;
40569;PMS5003;26270;34.428;-119.710;2023-01-04T08:26:37;0;0;
40569;PMS5003;26270;34.428;-119.710;2023-01-04T08:29:05;0;0;
40569;PMS5003;26270;34.428;-119.710;2023-01-04T08:31:33;1;1;
40569;PMS5003;26270;34.428;-119.710;2023-01-04T08:34:03;1;0;
40569;PMS5003;26270;34.428;-119.710;2023-01-04T08:36:35;0;0;
40569;PMS5003;26270;34.428;-119.710;2023-01-04T08:39:11;2;1;
40569;PMS5003;26270;34.428;-119.710;2023-01-04T08:41:40;0;0;
40569;PMS5003;26270;34.428;-119.710;2023-01-04T08:44:08;1;1;
40569;PMS5003;26270;34.428;-119.710;2023-01-04T08:46:36;2;1;
40569;PMS5003;26270;34.428;-119.710;2023-01-04T08:49:05;0;0;
40569;PMS5003;26270;34.428;-119.710;2023-01-04T08:51:33;0;0;
40569;PMS5003;26270;34.428;-119.710;2023-01-04T08:54:01;0;0;
40569;PMS5003;26270;34.428;-119.710;2023-01-04T08:56:30;1;0;
40569;PMS5003;26270;34.428;-119.710;2023-01-04T08:58:58;1;1;
40569;PMS5003;26270;34.428;-119.710;2023-01-04T09:01:27;1;0;
40569;PMS5003;26270;34.428;-119.710;2023-01-04T09:03:56;0;0;
40569;PMS5003;26270;34.428;-119.710;2023-01-04T09:06:25;0;0;
40569;PMS5003;26270;34.428;-119.710;2023-01-04T09:08:54;1;1;
40569;PMS5003;26270;34.428;-119.710;2023-01-04T09:11:23;1;0;
40569;PMS5003;26270;34.428;-119.710;2023-01-04T09:13:54;1;0;
40569;PMS5003;26270;34.428;-119.710;2023-01-04T09:16:22;0;0;
40569;PMS5003;26270;34.428;-119.710;2023-01-04T09:18:52;0;0;
40569;PMS5003;26270;34.428;-119.710;2023-01-04T09:21:21;0;0;
40569;PMS5003;26270;34.428;-119.710;2023-01-04T09:23:50;1;1;
40569;PMS5003;26270;34.428;-119.710;2023-01-04T09:26:19;0;0;
40569;PMS5003;26270;34.428;-119.710;2023-01-04T09:28:49;1;0;
40569;PMS5003;26270;34.428;-119.710;2023-01-04T09:31:20;0;0;
40569;PMS5003;26270;34.428;-119.710;2023-01-04T09:33:49;0;0;
40569;PMS5003;26270;34.428;-119.710;2023-01-04T09:36:19;0;0;
40569;PMS5003;26270;34.428;-119.710;2023-01-04T09:38:47;0;0;
40569;PMS5003;26270;34.428;-119.710;2023-01-04T09:41:17;0;0;
40569;PMS5003;26270;34.428;-119.710;2023-01-04T09:43:52;0;0;
40569;PMS5003;26270;34.428;-119.710;2023-01-04T09:46:25;0;0;
40569;PMS5003;26270;34.428;-119.710;2023-01-04T09:49:00;1;0;
40569;PMS5003;26270;34.428;-119.710;2023-01-04T09:51:40;0;0;
40569;PMS5003;26270;34.428;-119.710;2023-01-04T09:54:13;0;0;
40569;PMS5003;26270;34.428;-119.710;2023-01-04T09:56:46;1;0;
40569;PMS5003;26270;34.428;-119.710;2023-01-04T09:59:17;0;0;
40569;PMS5003;26270;34.428;-119.710;2023-01-04T10:01:56;0;0;
40569;PMS5003;26270;34.428;-119.710;2023-01-04T10:04:31;1;0;
40569;PMS5003;26270;34.428;-119.710;2023-01-04T10:07:13;0;0;
40569;PMS5003;26270;34.428;-119.710;2023-01-04T10:09:48;2;0;
40569;PMS5003;26270;34.428;-119.710;2023-01-04T10:12:21;0;0;
40569;PMS5003;26270;34.428;-119.710;2023-01-04T10:15:03;0;0;
40569;PMS5003;26270;34.428;-119.710;2023-01-04T10:17:47;0;0;
40569;PMS5003;26270;34.428;-119.710;2023-01-04T10:20:31;0;0;
40569;PMS5003;26270;34.428;-119.710;2023-01-04T10:23:14;0;0;
40569;PMS5003;26270;34.428;-119.710;2023-01-04T10:25:53;0;0;
40569;PMS5003;26270;34.428;-119.710;2023-01-04T10:28:28;0;0;
40569;PMS5003;26270;34.428;-119.710;2023-01-04T10:31:11;0;0;
40569;PMS5003;26270;34.428;-119.710;2023-01-04T10:33:46;0;0;
40569;PMS5003;26270;34.428;-119.710;2023-01-04T10:36:16;0;0;
40569;PMS5003;26270;34.428;-119.710;2023-01-04T10:38:46;0;0;
40569;PMS5003;26270;34.428;-119.710;2023-01-04T10:41:20;0;0;
40569;PMS5003;26270;34.428;-119.710;2023-01-04T10:43:52;0;0;
40569;PMS5003;26270;34.428;-119.710;2023-01-04T10:46:31;0;0;
40569;PMS5003;26270;34.428;-119.710;2023-01-04T10:49:06;0;0;
40569;PMS5003;26270;34.428;-119.710;2023-01-04T10:51:39;0;0;
40569;PMS5003;26270;34.428;-119.710;2023-01-04T10:54:17;0;0;
40569;PMS5003;26270;34.428;-119.710;2023-01-04T10:56:55;0;0;
40569;PMS5003;26270;34.428;-119.710;2023-01-04T10:59:32;0;0;
40569;PMS5003;26270;34.428;-119.710;2023-01-04T11:02:11;0;0;
40569;PMS5003;26270;34.428;-119.710;2023-01-04T11:04:46;0;0;
40569;PMS5003;26270;34.428;-119.710;2023-01-04T11:07:24;0;0;
40569;PMS5003;26270;34.428;-119.710;2023-01-04T11:09:58;0;0;
40569;PMS5003;26270;34.428;-119.710;2023-01-04T11:12:31;0;0;
40569;PMS5003;26270;34.428;-119.710;2023-01-04T11:14:59;0;0;
40569;PMS5003;26270;34.428;-119.710;2023-01-04T11:17:28;0;0;
40569;PMS5003;26270;34.428;-119.710;2023-01-04T11:19:58;1;1;
40569;PMS5003;26270;34.428;-119.710;2023-01-04T11:22:28;1;0;
40569;PMS5003;26270;34.428;-119.710;2023-01-04T11:25:03;0;0;
40569;PMS5003;26270;34.428;-119.710;2023-01-04T11:27:37;0;0;
40569;PMS5003;26270;34.428;-119.710;2023-01-04T11:30:12;1;0;
40569;PMS5003;26270;34.428;-119.710;2023-01-04T11:32:48;0;0;
40569;PMS5003;26270;34.428;-119.710;2023-01-04T11:35:38;1;0;
40569;PMS5003;26270;34.428;-119.710;2023-01-04T11:38:11;0;0;
40569;PMS5003;26270;34.428;-119.710;2023-01-04T11:40:41;0;0;
40569;PMS5003;26270;34.428;-119.710;2023-01-04T11:43:23;0;0;
40569;PMS5003;26270;34.428;-119.710;2023-01-04T11:45:54;0;0;
40569;PMS5003;26270;34.428;-119.710;2023-01-04T11:48:40;0;0;
40569;PMS5003;26270;34.428;-119.710;2023-01-04T11:51:18;0;0;
40569;PMS5003;26270;34.428;-119.710;2023-01-04T11:54:01;0;0;
40569;PMS5003;26270;34.428;-119.710;2023-01-04T11:56:31;0;0;
40569;PMS5003;26270;34.428;-119.710;2023-01-04T11:59:05;0;0;
40569;PMS5003;26270;34.428;-119.710;2023-01-04T12:01:40;1;0;
40569;PMS5003;26270;34.428;-119.710;2023-01-04T12:04:10;1;0;
40569;PMS5003;26270;34.428;-119.710;2023-01-04T12:06:42;0;0;
40569;PMS5003;26270;34.428;-119.710;2023-01-04T12:09:17;1;0;
40569;PMS5003;26270;34.428;-119.710;2023-01-04T12:11:46;1;0;
40569;PMS5003;26270;34.428;-119.710;2023-01-04T12:14:19;0;0;
40569;PMS5003;26270;34.428;-119.710;2023-01-04T12:16:51;0;0;
40569;PMS5003;26270;34.428;-119.710;2023-01-04T12:19:25;0;0;
40569;PMS5003;26270;34.428;-119.710;2023-01-04T12:21:55;0;0;
40569;PMS5003;26270;34.428;-119.710;2023-01-04T12:24:26;3;1;
40569;PMS5003;26270;34.428;-119.710;2023-01-04T12:26:56;1;0;
40569;PMS5003;26270;34.428;-119.710;2023-01-04T12:29:42;0;0;
40569;PMS5003;26270;34.428;-119.710;2023-01-04T12:32:51;1;1;
40569;PMS5003;26270;34.428;-119.710;2023-01-04T12:35:57;0;0;
40569;PMS5003;26270;34.428;-119.710;2023-01-04T12:39:46;0;0;
40569;PMS5003;26270;34.428;-119.710;2023-01-04T12:42:15;0;0;
40569;PMS5003;26270;34.428;-119.710;2023-01-04T12:45:17;1;1;
40569;PMS5003;26270;34.428;-119.710;2023-01-04T12:47:49;1;0;
40569;PMS5003;26270;34.428;-119.710;2023-01-04T12:50:19;0;0;
40569;PMS5003;26270;34.428;-119.710;2023-01-04T12:52:50;1;0;
40569;PMS5003;26270;34.428;-119.710;2023-01-04T12:55:24;1;0;
40569;PMS5003;26270;34.428;-119.710;2023-01-04T12:55:54;1;0;
40569;PMS5003;26270;34.428;-119.710;2023-01-04T12:59:15;2;0;
40569;PMS5003;26270;34.428;-119.710;2023-01-04T13:02:11;3;3;
40569;PMS5003;26270;34.428;-119.710;2023-01-04T13:04:43;0;0;
40569;PMS5003;26270;34.428;-119.710;2023-01-04T13:07:13;0;0;
40569;PMS5003;26270;34.428;-119.710;2023-01-04T13:09:49;0;0;
40569;PMS5003;26270;34.428;-119.710;2023-01-04T13:12:54;2;0;
40569;PMS5003;26270;34.428;-119.710;2023-01-04T13:15:43;1;0;
40569;PMS5003;26270;34.428;-119.710;2023-01-04T13:18:34;1;0;
40569;PMS5003;26270;34.428;-119.710;2023-01-04T13:21:09;0;0;
40569;PMS5003;26270;34.428;-119.710;2023-01-04T13:23:39;0;0;
40569;PMS5003;26270;34.428;-119.710;2023-01-04T13:26:47;1;0;
40569;PMS5003;26270;34.428;-119.710;2023-01-04T13:29:16;1;0;
40569;PMS5003;26270;34.428;-119.710;2023-01-04T13:31:51;0;0;
40569;PMS5003;26270;34.428;-119.710;2023-01-04T13:34:24;0;0;
40569;PMS5003;26270;34.428;-119.710;2023-01-04T13:36:59;1;1;
40569;PMS5003;26270;34.428;-119.710;2023-01-04T13:39:33;0;0;
40569;PMS5003;26270;34.428;-119.710;2023-01-04T13:42:02;1;0;
40569;PMS5003;26270;34.428;-119.710;2023-01-04T13:44:53;1;0;
40569;PMS5003;26270;34.428;-119.710;2023-01-04T13:47:39;0;0;
40569;PMS5003;26270;34.428;-119.710;2023-01-04T13:50:21;1;0;
40569;PMS5003;26270;34.428;-119.710;2023-01-04T13:52:54;1;0;
40569;PMS5003;26270;34.428;-119.710;2023-01-04T13:55:24;2;1;
40569;PMS5003;26270;34.428;-119.710;2023-01-04T13:57:55;2;1;
40569;PMS5003;26270;34.428;-119.710;2023-01-04T14:00:24;1;1;
40569;PMS5003;26270;34.428;-119.710;2023-01-04T14:04:00;2;1;
40569;PMS5003;26270;34.428;-119.710;2023-01-04T14:06:32;1;1;
40569;PMS5003;26270;34.428;-119.710;2023-01-04T14:09:06;1;0;
40569;PMS5003;26270;34.428;-119.710;2023-01-04T14:11:43;0;0;
40569;PMS5003;26270;34.428;-119.710;2023-01-04T14:14:26;2;1;
40569;PMS5003;26270;34.428;-119.710;2023-01-04T14:17:33;1;0;
40569;PMS5003;26270;34.428;-119.710;2023-01-04T14:20:04;2;1;
40569;PMS5003;26270;34.428;-119.710;2023-01-04T14:22:57;0;0;
40569;PMS5003;26270;34.428;-119.710;2023-01-04T14:25:39;1;0;
40569;PMS5003;26270;34.428;-119.710;2023-01-04T14:28:45;1;0;
40569;PMS5003;26270;34.428;-119.710;2023-01-04T14:31:19;0;0;
40569;PMS5003;26270;34.428;-119.710;2023-01-04T14:33:53;3;1;
40569;PMS5003;26270;34.428;-119.710;2023-01-04T14:36:22;2;1;
40569;PMS5003;26270;34.428;-119.710;2023-01-04T14:38:55;1;1;
40569;PMS5003;26270;34.428;-119.710;2023-01-04T14:41:27;1;1;
40569;PMS5003;26270;34.428;-119.710;2023-01-04T14:44:08;2;1;
40569;PMS5003;26270;34.428;-119.710;2023-01-04T14:46:37;1;1;
40569;PMS5003;26270;34.428;-119.710;2023-01-04T14:49:06;1;1;
40569;PMS5003;26270;34.428;-119.710;2023-01-04T14:51:36;2;1;
40569;PMS5003;26270;34.428;-119.710;2023-01-04T14:54:09;1;1;
40569;PMS5003;26270;34.428;-119.710;2023-01-04T14:56:39;2;1;
40569;PMS5003;26270;34.428;-119.710;2023-01-04T14:59:07;1;1;
40569;PMS5003;26270;34.428;-119.710;2023-01-04T15:01:35;4;2;
40569;PMS5003;26270;34.428;-119.710;2023-01-04T15:04:04;2;1;
40569;PMS5003;26270;34.428;-119.710;2023-01-04T15:06:33;2;1;
40569;PMS5003;26270;34.428;-119.710;2023-01-04T15:09:01;1;1;
40569;PMS5003;26270;34.428;-119.710;2023-01-04T15:11:29;3;0;
40569;PMS5003;26270;34.428;-119.710;2023-01-04T15:13:58;2;0;
40569;PMS5003;26270;34.428;-119.710;2023-01-04T15:16:27;3;1;
40569;PMS5003;26270;34.428;-119.710;2023-01-04T15:18:54;0;0;
40569;PMS5003;26270;34.428;-119.710;2023-01-04T15:21:23;7;2;
40569;PMS5003;26270;34.428;-119.710;2023-01-04T15:23:51;1;0;
40569;PMS5003;26270;34.428;-119.710;2023-01-04T15:26:20;0;0;
40569;PMS5003;26270;34.428;-119.710;2023-01-04T15:28:48;0;0;
40569;PMS5003;26270;34.428;-119.710;2023-01-04T15:31:16;2;0;
40569;PMS5003;26270;34.428;-119.710;2023-01-04T15:33:44;0;0;
40569;PMS5003;26270;34.428;-119.710;2023-01-04T15:36:13;1;0;
40569;PMS5003;26270;34.428;-119.710;2023-01-04T15:38:44;1;0;
40569;PMS5003;26270;34.428;-119.710;2023-01-04T15:41:13;0;0;
40569;PMS5003;26270;34.428;-119.710;2023-01-04T15:43:43;0;0;
40569;PMS5003;26270;34.428;-119.710;2023-01-04T15:46:12;1;0;
40569;PMS5003;26270;34.428;-119.710;2023-01-04T15:48:40;1;1;
40569;PMS5003;26270;34.428;-119.710;2023-01-04T15:51:09;0;0;
40569;PMS5003;26270;34.428;-119.710;2023-01-04T15:53:37;2;1;
40569;PMS5003;26270;34.428;-119.710;2023-01-04T15:56:06;1;1;
40569;PMS5003;26270;34.428;-119.710;2023-01-04T15:58:36;0;0;
40569;PMS5003;26270;34.428;-119.710;2023-01-04T16:01:08;4;1;
40569;PMS5003;26270;34.428;-119.710;2023-01-04T16:03:37;3;2;
40569;PMS5003;26270;34.428;-119.710;2023-01-04T16:06:06;1;1;
40569;PMS5003;26270;34.428;-119.710;2023-01-04T16:08:35;3;1;
40569;PMS5003;26270;34.428;-119.710;2023-01-04T16:11:07;1;1;
40569;PMS5003;26270;34.428;-119.710;2023-01-04T16:13:37;1;1;
40569;PMS5003;26270;34.428;-119.710;2023-01-04T16:16:06;1;0;
40569;PMS5003;26270;34.428;-119.710;2023-01-04T16:18:35;1;1;
40569;PMS5003;26270;34.428;-119.710;2023-01-04T16:21:05;2;1;
40569;PMS5003;26270;34.428;-119.710;2023-01-04T16:23:34;1;1;
40569;PMS5003;26270;34.428;-119.710;2023-01-04T16:26:04;1;1;
40569;PMS5003;26270;34.428;-119.710;2023-01-04T16:28:35;0;0;